sensor_id;sensor_type;location;lat;lon;timestamp;P1;durP1;ratioP1;P2;durP2;ratioP2
67227;SDS011;54139;42.616;23.748;2023-04-03T00:01:15;2.78;;;2.10;;
67227;SDS011;54139;42.616;23.748;2023-04-03T00:03:41;2.38;;;2.17;;
67227;SDS011;54139;42.616;23.748;2023-04-03T00:06:06;3.03;;;2.28;;
67227;SDS011;54139;42.616;23.748;2023-04-03T00:08:33;2.40;;;2.20;;
67227;SDS011;54139;42.616;23.748;2023-04-03T00:10:59;2.22;;;2.03;;
67227;SDS011;54139;42.616;23.748;2023-04-03T00:13:24;2.65;;;1.70;;
67227;SDS011;54139;42.616;23.748;2023-04-03T00:15:51;2.92;;;2.00;;
67227;SDS011;54139;42.616;23.748;2023-04-03T00:18:17;2.30;;;1.90;;
67227;SDS011;54139;42.616;23.748;2023-04-03T00:20:42;2.72;;;1.77;;
67227;SDS011;54139;42.616;23.748;2023-04-03T00:23:07;4.32;;;1.85;;
67227;SDS011;54139;42.616;23.748;2023-04-03T00:25:33;3.58;;;1.85;;
67227;SDS011;54139;42.616;23.748;2023-04-03T00:27:58;6.63;;;2.22;;
67227;SDS011;54139;42.616;23.748;2023-04-03T00:30:23;3.38;;;1.92;;
67227;SDS011;54139;42.616;23.748;2023-04-03T00:32:49;5.55;;;1.98;;
67227;SDS011;54139;42.616;23.748;2023-04-03T00:35:15;2.17;;;1.92;;
67227;SDS011;54139;42.616;23.748;2023-04-03T00:37:43;2.17;;;1.90;;
67227;SDS011;54139;42.616;23.748;2023-04-03T00:40:09;3.65;;;2.60;;
67227;SDS011;54139;42.616;23.748;2023-04-03T00:42:35;2.28;;;2.00;;
67227;SDS011;54139;42.616;23.748;2023-04-03T00:47:26;5.40;;;2.40;;
67227;SDS011;54139;42.616;23.748;2023-04-03T00:49:52;3.50;;;2.10;;
67227;SDS011;54139;42.616;23.748;2023-04-03T00:52:19;3.95;;;2.30;;
67227;SDS011;54139;42.616;23.748;2023-04-03T00:54:46;7.15;;;1.85;;
67227;SDS011;54139;42.616;23.748;2023-04-03T00:57:12;4.40;;;1.80;;
67227;SDS011;54139;42.616;23.748;2023-04-03T00:59:39;4.10;;;1.88;;
67227;SDS011;54139;42.616;23.748;2023-04-03T01:02:06;3.20;;;1.90;;
67227;SDS011;54139;42.616;23.748;2023-04-03T01:04:33;4.47;;;2.10;;
67227;SDS011;54139;42.616;23.748;2023-04-03T01:07:18;3.50;;;1.75;;
67227;SDS011;54139;42.616;23.748;2023-04-03T01:09:45;2.50;;;1.85;;
67227;SDS011;54139;42.616;23.748;2023-04-03T01:14:46;4.63;;;1.77;;
67227;SDS011;54139;42.616;23.748;2023-04-03T01:25:26;4.85;;;2.28;;
67227;SDS011;54139;42.616;23.748;2023-04-03T01:27:51;7.20;;;3.40;;
67227;SDS011;54139;42.616;23.748;2023-04-03T01:30:17;9.48;;;5.78;;
67227;SDS011;54139;42.616;23.748;2023-04-03T01:32:42;10.38;;;6.03;;
67227;SDS011;54139;42.616;23.748;2023-04-03T01:35:08;4.00;;;2.55;;
67227;SDS011;54139;42.616;23.748;2023-04-03T01:37:33;4.03;;;2.25;;
67227;SDS011;54139;42.616;23.748;2023-04-03T01:39:59;6.57;;;2.42;;
67227;SDS011;54139;42.616;23.748;2023-04-03T01:42:24;2.38;;;1.92;;
67227;SDS011;54139;42.616;23.748;2023-04-03T01:44:50;8.80;;;4.85;;
67227;SDS011;54139;42.616;23.748;2023-04-03T01:47:15;8.30;;;3.55;;
67227;SDS011;54139;42.616;23.748;2023-04-03T01:49:40;5.65;;;2.80;;
67227;SDS011;54139;42.616;23.748;2023-04-03T01:52:05;15.82;;;5.15;;
67227;SDS011;54139;42.616;23.748;2023-04-03T01:54:31;7.78;;;3.40;;
67227;SDS011;54139;42.616;23.748;2023-04-03T01:56:56;3.20;;;2.63;;
67227;SDS011;54139;42.616;23.748;2023-04-03T01:59:21;6.68;;;3.65;;
67227;SDS011;54139;42.616;23.748;2023-04-03T02:01:47;4.97;;;3.03;;
67227;SDS011;54139;42.616;23.748;2023-04-03T02:04:12;3.78;;;2.50;;
67227;SDS011;54139;42.616;23.748;2023-04-03T02:06:37;4.40;;;1.85;;
67227;SDS011;54139;42.616;23.748;2023-04-03T02:09:03;3.78;;;2.10;;
67227;SDS011;54139;42.616;23.748;2023-04-03T02:11:29;3.38;;;2.60;;
67227;SDS011;54139;42.616;23.748;2023-04-03T02:13:54;3.85;;;2.30;;
67227;SDS011;54139;42.616;23.748;2023-04-03T02:16:19;2.92;;;1.65;;
67227;SDS011;54139;42.616;23.748;2023-04-03T02:18:44;2.95;;;2.53;;
67227;SDS011;54139;42.616;23.748;2023-04-03T02:21:10;3.45;;;3.13;;
67227;SDS011;54139;42.616;23.748;2023-04-03T02:23:35;6.78;;;5.93;;
67227;SDS011;54139;42.616;23.748;2023-04-03T02:26:05;3.78;;;2.42;;
67227;SDS011;54139;42.616;23.748;2023-04-03T02:28:31;3.45;;;2.20;;
67227;SDS011;54139;42.616;23.748;2023-04-03T02:30:56;5.15;;;2.70;;
67227;SDS011;54139;42.616;23.748;2023-04-03T02:33:21;21.65;;;9.30;;
67227;SDS011;54139;42.616;23.748;2023-04-03T02:35:46;16.80;;;8.68;;
67227;SDS011;54139;42.616;23.748;2023-04-03T02:38:18;17.42;;;8.38;;
67227;SDS011;54139;42.616;23.748;2023-04-03T02:40:43;8.55;;;4.25;;
67227;SDS011;54139;42.616;23.748;2023-04-03T02:43:09;6.22;;;4.07;;
67227;SDS011;54139;42.616;23.748;2023-04-03T02:45:35;5.40;;;2.97;;
67227;SDS011;54139;42.616;23.748;2023-04-03T02:48:00;3.33;;;2.30;;
67227;SDS011;54139;42.616;23.748;2023-04-03T02:50:25;4.05;;;2.42;;
67227;SDS011;54139;42.616;23.748;2023-04-03T02:52:50;3.03;;;1.88;;
67227;SDS011;54139;42.616;23.748;2023-04-03T02:55:16;2.83;;;2.20;;
67227;SDS011;54139;42.616;23.748;2023-04-03T02:57:41;3.20;;;2.10;;
67227;SDS011;54139;42.616;23.748;2023-04-03T03:00:07;4.55;;;2.65;;
67227;SDS011;54139;42.616;23.748;2023-04-03T03:02:32;4.50;;;2.53;;
67227;SDS011;54139;42.616;23.748;2023-04-03T03:04:59;2.72;;;2.50;;
67227;SDS011;54139;42.616;23.748;2023-04-03T03:07:24;2.33;;;2.13;;
67227;SDS011;54139;42.616;23.748;2023-04-03T03:09:50;3.42;;;2.30;;
67227;SDS011;54139;42.616;23.748;2023-04-03T03:12:16;6.25;;;2.75;;
67227;SDS011;54139;42.616;23.748;2023-04-03T03:14:46;4.47;;;3.55;;
67227;SDS011;54139;42.616;23.748;2023-04-03T03:17:11;13.73;;;8.10;;
67227;SDS011;54139;42.616;23.748;2023-04-03T03:19:36;12.52;;;8.38;;
67227;SDS011;54139;42.616;23.748;2023-04-03T03:22:02;6.95;;;5.30;;
67227;SDS011;54139;42.616;23.748;2023-04-03T03:24:28;4.10;;;2.67;;
67227;SDS011;54139;42.616;23.748;2023-04-03T03:26:53;4.03;;;3.20;;
67227;SDS011;54139;42.616;23.748;2023-04-03T03:29:19;4.18;;;3.28;;
67227;SDS011;54139;42.616;23.748;2023-04-03T03:31:44;4.05;;;3.55;;
67227;SDS011;54139;42.616;23.748;2023-04-03T03:34:10;6.43;;;3.78;;
67227;SDS011;54139;42.616;23.748;2023-04-03T03:36:35;3.17;;;2.83;;
67227;SDS011;54139;42.616;23.748;2023-04-03T03:39:01;3.58;;;3.10;;
67227;SDS011;54139;42.616;23.748;2023-04-03T03:41:26;6.88;;;4.25;;
67227;SDS011;54139;42.616;23.748;2023-04-03T03:43:51;11.57;;;8.18;;
67227;SDS011;54139;42.616;23.748;2023-04-03T03:46:16;17.13;;;11.93;;
67227;SDS011;54139;42.616;23.748;2023-04-03T03:48:42;6.78;;;4.97;;
67227;SDS011;54139;42.616;23.748;2023-04-03T03:51:07;4.10;;;3.70;;
67227;SDS011;54139;42.616;23.748;2023-04-03T03:53:32;3.40;;;3.10;;
67227;SDS011;54139;42.616;23.748;2023-04-03T03:55:58;3.53;;;3.30;;
67227;SDS011;54139;42.616;23.748;2023-04-03T03:58:23;4.25;;;3.00;;
67227;SDS011;54139;42.616;23.748;2023-04-03T04:00:48;8.10;;;5.53;;
67227;SDS011;54139;42.616;23.748;2023-04-03T04:03:14;122.63;;;75.85;;
67227;SDS011;54139;42.616;23.748;2023-04-03T04:05:39;78.85;;;48.67;;
67227;SDS011;54139;42.616;23.748;2023-04-03T04:08:04;38.25;;;24.50;;
67227;SDS011;54139;42.616;23.748;2023-04-03T04:10:30;13.30;;;9.93;;
67227;SDS011;54139;42.616;23.748;2023-04-03T04:12:55;6.15;;;5.47;;
67227;SDS011;54139;42.616;23.748;2023-04-03T04:15:20;25.33;;;18.52;;
67227;SDS011;54139;42.616;23.748;2023-04-03T04:17:46;31.27;;;19.38;;
67227;SDS011;54139;42.616;23.748;2023-04-03T04:20:12;25.27;;;15.43;;
67227;SDS011;54139;42.616;23.748;2023-04-03T04:22:37;15.68;;;10.55;;
67227;SDS011;54139;42.616;23.748;2023-04-03T04:25:04;10.80;;;9.65;;
67227;SDS011;54139;42.616;23.748;2023-04-03T04:27:29;7.07;;;5.70;;
67227;SDS011;54139;42.616;23.748;2023-04-03T04:29:54;7.63;;;6.63;;
67227;SDS011;54139;42.616;23.748;2023-04-03T04:32:20;8.95;;;5.25;;
67227;SDS011;54139;42.616;23.748;2023-04-03T04:34:45;8.18;;;6.35;;
67227;SDS011;54139;42.616;23.748;2023-04-03T04:37:10;9.70;;;6.90;;
67227;SDS011;54139;42.616;23.748;2023-04-03T04:39:36;10.05;;;8.05;;
67227;SDS011;54139;42.616;23.748;2023-04-03T04:42:01;6.72;;;6.13;;
67227;SDS011;54139;42.616;23.748;2023-04-03T04:44:27;5.80;;;4.45;;
67227;SDS011;54139;42.616;23.748;2023-04-03T04:46:52;6.50;;;4.13;;
67227;SDS011;54139;42.616;23.748;2023-04-03T04:49:17;4.28;;;3.55;;
67227;SDS011;54139;42.616;23.748;2023-04-03T04:51:42;5.75;;;3.45;;
67227;SDS011;54139;42.616;23.748;2023-04-03T04:54:08;3.58;;;2.58;;
67227;SDS011;54139;42.616;23.748;2023-04-03T04:56:33;5.85;;;3.30;;
67227;SDS011;54139;42.616;23.748;2023-04-03T04:58:58;45.50;;;19.35;;
67227;SDS011;54139;42.616;23.748;2023-04-03T05:01:24;4.22;;;2.92;;
67227;SDS011;54139;42.616;23.748;2023-04-03T05:03:49;4.68;;;2.55;;
67227;SDS011;54139;42.616;23.748;2023-04-03T05:06:15;4.20;;;3.50;;
67227;SDS011;54139;42.616;23.748;2023-04-03T05:08:40;3.53;;;2.65;;
67227;SDS011;54139;42.616;23.748;2023-04-03T05:11:05;13.13;;;7.75;;
67227;SDS011;54139;42.616;23.748;2023-04-03T05:13:30;57.20;;;25.73;;
67227;SDS011;54139;42.616;23.748;2023-04-03T05:15:56;71.00;;;34.65;;
67227;SDS011;54139;42.616;23.748;2023-04-03T05:18:21;21.05;;;11.50;;
67227;SDS011;54139;42.616;23.748;2023-04-03T05:20:48;7.72;;;4.30;;
67227;SDS011;54139;42.616;23.748;2023-04-03T05:23:13;23.73;;;13.45;;
67227;SDS011;54139;42.616;23.748;2023-04-03T05:25:39;66.05;;;33.72;;
67227;SDS011;54139;42.616;23.748;2023-04-03T05:28:04;56.83;;;32.97;;
67227;SDS011;54139;42.616;23.748;2023-04-03T05:30:30;28.50;;;15.40;;
67227;SDS011;54139;42.616;23.748;2023-04-03T05:32:55;18.75;;;10.18;;
67227;SDS011;54139;42.616;23.748;2023-04-03T05:35:20;11.52;;;7.20;;
67227;SDS011;54139;42.616;23.748;2023-04-03T05:37:46;11.52;;;7.18;;
67227;SDS011;54139;42.616;23.748;2023-04-03T05:40:11;13.52;;;9.73;;
67227;SDS011;54139;42.616;23.748;2023-04-03T05:42:36;10.07;;;8.38;;
67227;SDS011;54139;42.616;23.748;2023-04-03T05:45:02;13.60;;;10.05;;
67227;SDS011;54139;42.616;23.748;2023-04-03T05:47:27;15.30;;;9.57;;
67227;SDS011;54139;42.616;23.748;2023-04-03T05:49:52;14.93;;;8.93;;
67227;SDS011;54139;42.616;23.748;2023-04-03T05:52:22;12.75;;;8.32;;
67227;SDS011;54139;42.616;23.748;2023-04-03T05:54:48;15.57;;;9.15;;
67227;SDS011;54139;42.616;23.748;2023-04-03T05:57:14;17.75;;;11.27;;
67227;SDS011;54139;42.616;23.748;2023-04-03T05:59:41;9.57;;;6.45;;
67227;SDS011;54139;42.616;23.748;2023-04-03T06:02:06;6.45;;;3.88;;
67227;SDS011;54139;42.616;23.748;2023-04-03T06:04:32;5.55;;;3.58;;
67227;SDS011;54139;42.616;23.748;2023-04-03T06:06:58;3.00;;;2.63;;
67227;SDS011;54139;42.616;23.748;2023-04-03T06:09:25;2.50;;;2.30;;
67227;SDS011;54139;42.616;23.748;2023-04-03T06:11:51;2.50;;;2.15;;
67227;SDS011;54139;42.616;23.748;2023-04-03T06:14:17;2.38;;;2.00;;
67227;SDS011;54139;42.616;23.748;2023-04-03T06:16:42;2.03;;;1.83;;
67227;SDS011;54139;42.616;23.748;2023-04-03T06:19:08;2.42;;;2.10;;
67227;SDS011;54139;42.616;23.748;2023-04-03T06:21:34;3.72;;;2.15;;
67227;SDS011;54139;42.616;23.748;2023-04-03T06:24:00;4.45;;;2.30;;
67227;SDS011;54139;42.616;23.748;2023-04-03T06:26:26;2.17;;;1.98;;
67227;SDS011;54139;42.616;23.748;2023-04-03T06:28:52;2.10;;;1.90;;
67227;SDS011;54139;42.616;23.748;2023-04-03T06:31:17;3.13;;;1.92;;
67227;SDS011;54139;42.616;23.748;2023-04-03T06:33:42;3.03;;;1.83;;
67227;SDS011;54139;42.616;23.748;2023-04-03T06:36:09;2.08;;;1.88;;
67227;SDS011;54139;42.616;23.748;2023-04-03T06:38:35;3.97;;;2.95;;
67227;SDS011;54139;42.616;23.748;2023-04-03T06:41:00;3.42;;;2.88;;
67227;SDS011;54139;42.616;23.748;2023-04-03T06:43:25;3.30;;;3.00;;
67227;SDS011;54139;42.616;23.748;2023-04-03T06:45:51;5.10;;;2.92;;
67227;SDS011;54139;42.616;23.748;2023-04-03T06:48:16;4.93;;;3.25;;
67227;SDS011;54139;42.616;23.748;2023-04-03T06:50:43;3.45;;;2.90;;
67227;SDS011;54139;42.616;23.748;2023-04-03T06:53:08;3.03;;;2.72;;
67227;SDS011;54139;42.616;23.748;2023-04-03T06:55:33;3.40;;;3.10;;
67227;SDS011;54139;42.616;23.748;2023-04-03T06:57:59;4.43;;;3.33;;
67227;SDS011;54139;42.616;23.748;2023-04-03T07:00:24;4.05;;;3.08;;
67227;SDS011;54139;42.616;23.748;2023-04-03T07:02:49;4.30;;;3.15;;
67227;SDS011;54139;42.616;23.748;2023-04-03T07:05:15;3.65;;;3.28;;
67227;SDS011;54139;42.616;23.748;2023-04-03T07:07:40;3.53;;;3.22;;
67227;SDS011;54139;42.616;23.748;2023-04-03T07:10:06;3.30;;;3.00;;
67227;SDS011;54139;42.616;23.748;2023-04-03T07:12:32;3.72;;;2.78;;
67227;SDS011;54139;42.616;23.748;2023-04-03T07:14:57;4.60;;;3.17;;
67227;SDS011;54139;42.616;23.748;2023-04-03T07:17:23;4.35;;;2.78;;
67227;SDS011;54139;42.616;23.748;2023-04-03T07:19:48;3.00;;;2.80;;
67227;SDS011;54139;42.616;23.748;2023-04-03T07:22:13;2.78;;;2.58;;
67227;SDS011;54139;42.616;23.748;2023-04-03T07:24:39;3.50;;;3.20;;
67227;SDS011;54139;42.616;23.748;2023-04-03T07:27:04;3.80;;;2.88;;
67227;SDS011;54139;42.616;23.748;2023-04-03T07:29:30;5.40;;;3.25;;
67227;SDS011;54139;42.616;23.748;2023-04-03T07:31:55;4.68;;;2.72;;
67227;SDS011;54139;42.616;23.748;2023-04-03T07:34:21;3.83;;;2.85;;
67227;SDS011;54139;42.616;23.748;2023-04-03T07:36:46;2.35;;;2.15;;
67227;SDS011;54139;42.616;23.748;2023-04-03T07:39:13;4.90;;;2.78;;
67227;SDS011;54139;42.616;23.748;2023-04-03T07:41:38;2.70;;;2.42;;
67227;SDS011;54139;42.616;23.748;2023-04-03T07:44:04;3.38;;;2.90;;
67227;SDS011;54139;42.616;23.748;2023-04-03T07:46:30;2.80;;;2.53;;
67227;SDS011;54139;42.616;23.748;2023-04-03T07:48:55;4.38;;;2.45;;
67227;SDS011;54139;42.616;23.748;2023-04-03T07:51:20;2.22;;;2.03;;
67227;SDS011;54139;42.616;23.748;2023-04-03T07:53:46;2.80;;;2.57;;
67227;SDS011;54139;42.616;23.748;2023-04-03T07:56:11;2.88;;;2.65;;
67227;SDS011;54139;42.616;23.748;2023-04-03T07:58:36;3.83;;;2.58;;
67227;SDS011;54139;42.616;23.748;2023-04-03T08:01:03;3.70;;;3.08;;
67227;SDS011;54139;42.616;23.748;2023-04-03T08:03:28;2.85;;;2.45;;
67227;SDS011;54139;42.616;23.748;2023-04-03T08:05:53;2.75;;;2.45;;
67227;SDS011;54139;42.616;23.748;2023-04-03T08:08:20;3.40;;;3.08;;
67227;SDS011;54139;42.616;23.748;2023-04-03T08:10:50;3.70;;;3.40;;
67227;SDS011;54139;42.616;23.748;2023-04-03T08:13:16;3.83;;;2.88;;
67227;SDS011;54139;42.616;23.748;2023-04-03T08:15:41;2.88;;;2.67;;
67227;SDS011;54139;42.616;23.748;2023-04-03T08:18:07;3.40;;;3.10;;
67227;SDS011;54139;42.616;23.748;2023-04-03T08:20:32;3.28;;;3.00;;
67227;SDS011;54139;42.616;23.748;2023-04-03T08:22:57;4.70;;;3.83;;
67227;SDS011;54139;42.616;23.748;2023-04-03T08:25:22;3.57;;;3.27;;
67227;SDS011;54139;42.616;23.748;2023-04-03T08:27:48;9.32;;;4.15;;
67227;SDS011;54139;42.616;23.748;2023-04-03T08:30:13;3.45;;;3.15;;
67227;SDS011;54139;42.616;23.748;2023-04-03T08:32:39;4.80;;;3.30;;
67227;SDS011;54139;42.616;23.748;2023-04-03T08:35:06;3.67;;;3.38;;
67227;SDS011;54139;42.616;23.748;2023-04-03T08:37:34;3.58;;;3.28;;
67227;SDS011;54139;42.616;23.748;2023-04-03T08:40:00;6.05;;;4.82;;
67227;SDS011;54139;42.616;23.748;2023-04-03T08:47:38;4.63;;;4.22;;
67227;SDS011;54139;42.616;23.748;2023-04-03T08:50:07;3.92;;;3.63;;
67227;SDS011;54139;42.616;23.748;2023-04-03T08:55:02;5.00;;;4.50;;
67227;SDS011;54139;42.616;23.748;2023-04-03T08:59:55;5.90;;;5.30;;
67227;SDS011;54139;42.616;23.748;2023-04-03T09:02:31;8.20;;;6.00;;
67227;SDS011;54139;42.616;23.748;2023-04-03T09:04:58;8.25;;;7.30;;
67227;SDS011;54139;42.616;23.748;2023-04-03T09:10:20;8.20;;;7.38;;
67227;SDS011;54139;42.616;23.748;2023-04-03T09:12:51;9.60;;;7.75;;
67227;SDS011;54139;42.616;23.748;2023-04-03T09:15:19;7.55;;;6.82;;
67227;SDS011;54139;42.616;23.748;2023-04-03T09:23:01;6.03;;;4.30;;
67227;SDS011;54139;42.616;23.748;2023-04-03T09:25:31;5.63;;;4.88;;
67227;SDS011;54139;42.616;23.748;2023-04-03T09:28:02;6.40;;;4.80;;
67227;SDS011;54139;42.616;23.748;2023-04-03T09:30:27;5.75;;;4.50;;
67227;SDS011;54139;42.616;23.748;2023-04-03T09:32:54;4.40;;;3.70;;
67227;SDS011;54139;42.616;23.748;2023-04-03T09:37:49;6.40;;;4.97;;
67227;SDS011;54139;42.616;23.748;2023-04-03T09:42:51;8.60;;;3.80;;
67227;SDS011;54139;42.616;23.748;2023-04-03T09:45:29;4.28;;;3.88;;
67227;SDS011;54139;42.616;23.748;2023-04-03T09:48:04;3.85;;;3.40;;
67227;SDS011;54139;42.616;23.748;2023-04-03T09:50:30;8.07;;;4.72;;
67227;SDS011;54139;42.616;23.748;2023-04-03T09:52:56;4.07;;;3.67;;
67227;SDS011;54139;42.616;23.748;2023-04-03T09:55:23;3.67;;;3.08;;
67227;SDS011;54139;42.616;23.748;2023-04-03T09:58:05;4.00;;;3.60;;
67227;SDS011;54139;42.616;23.748;2023-04-03T10:00:40;3.33;;;3.08;;
67227;SDS011;54139;42.616;23.748;2023-04-03T10:03:08;3.25;;;2.95;;
67227;SDS011;54139;42.616;23.748;2023-04-03T10:05:48;3.75;;;3.25;;
67227;SDS011;54139;42.616;23.748;2023-04-03T10:10:45;2.97;;;2.67;;
67227;SDS011;54139;42.616;23.748;2023-04-03T10:15:44;3.03;;;2.83;;
67227;SDS011;54139;42.616;23.748;2023-04-03T10:20:48;4.22;;;2.80;;
67227;SDS011;54139;42.616;23.748;2023-04-03T10:23:17;8.45;;;3.22;;
67227;SDS011;54139;42.616;23.748;2023-04-03T10:38:46;3.67;;;3.10;;
67227;SDS011;54139;42.616;23.748;2023-04-03T10:41:47;3.80;;;3.50;;
67227;SDS011;54139;42.616;23.748;2023-04-03T10:44:16;5.28;;;4.78;;
67227;SDS011;54139;42.616;23.748;2023-04-03T10:46:44;3.88;;;3.55;;
67227;SDS011;54139;42.616;23.748;2023-04-03T10:51:52;3.65;;;3.35;;
67227;SDS011;54139;42.616;23.748;2023-04-03T10:54:25;4.30;;;3.80;;
67227;SDS011;54139;42.616;23.748;2023-04-03T10:59:33;6.27;;;3.17;;
67227;SDS011;54139;42.616;23.748;2023-04-03T11:02:07;4.43;;;2.70;;
67227;SDS011;54139;42.616;23.748;2023-04-03T11:04:37;3.22;;;2.92;;
67227;SDS011;54139;42.616;23.748;2023-04-03T11:07:10;4.20;;;3.35;;
67227;SDS011;54139;42.616;23.748;2023-04-03T11:09:37;3.40;;;3.10;;
67227;SDS011;54139;42.616;23.748;2023-04-03T11:12:06;3.95;;;3.55;;
67227;SDS011;54139;42.616;23.748;2023-04-03T11:14:35;5.65;;;3.08;;
67227;SDS011;54139;42.616;23.748;2023-04-03T11:17:04;4.13;;;3.40;;
67227;SDS011;54139;42.616;23.748;2023-04-03T11:24:54;3.53;;;3.20;;
67227;SDS011;54139;42.616;23.748;2023-04-03T11:27:22;4.38;;;3.97;;
67227;SDS011;54139;42.616;23.748;2023-04-03T11:29:48;4.15;;;3.85;;
67227;SDS011;54139;42.616;23.748;2023-04-03T11:32:21;7.25;;;3.55;;
67227;SDS011;54139;42.616;23.748;2023-04-03T11:34:52;4.32;;;3.92;;
67227;SDS011;54139;42.616;23.748;2023-04-03T11:39:54;6.38;;;3.88;;
67227;SDS011;54139;42.616;23.748;2023-04-03T11:44:51;4.13;;;3.75;;
67227;SDS011;54139;42.616;23.748;2023-04-03T11:47:47;5.03;;;4.30;;
67227;SDS011;54139;42.616;23.748;2023-04-03T11:58:02;1.27;;;0.80;;
67227;SDS011;54139;42.616;23.748;2023-04-03T12:05:53;2.08;;;1.20;;
67227;SDS011;54139;42.616;23.748;2023-04-03T12:16:00;1.25;;;1.15;;
67227;SDS011;54139;42.616;23.748;2023-04-03T12:18:37;3.97;;;3.35;;
67227;SDS011;54139;42.616;23.748;2023-04-03T12:21:05;1.85;;;1.50;;
67227;SDS011;54139;42.616;23.748;2023-04-03T12:23:32;1.50;;;1.40;;
67227;SDS011;54139;42.616;23.748;2023-04-03T12:26:05;1.95;;;1.85;;
67227;SDS011;54139;42.616;23.748;2023-04-03T12:28:38;2.35;;;1.88;;
67227;SDS011;54139;42.616;23.748;2023-04-03T12:31:04;1.40;;;1.30;;
67227;SDS011;54139;42.616;23.748;2023-04-03T12:33:43;1.92;;;1.58;;
67227;SDS011;54139;42.616;23.748;2023-04-03T12:36:22;2.20;;;2.00;;
67227;SDS011;54139;42.616;23.748;2023-04-03T12:39:01;5.13;;;3.70;;
67227;SDS011;54139;42.616;23.748;2023-04-03T12:51:44;2.00;;;1.73;;
67227;SDS011;54139;42.616;23.748;2023-04-03T12:56:39;2.83;;;2.38;;
67227;SDS011;54139;42.616;23.748;2023-04-03T12:59:19;3.50;;;3.17;;
67227;SDS011;54139;42.616;23.748;2023-04-03T13:01:52;4.03;;;3.67;;
67227;SDS011;54139;42.616;23.748;2023-04-03T13:04:18;4.15;;;2.80;;
67227;SDS011;54139;42.616;23.748;2023-04-03T13:06:44;2.35;;;2.15;;
67227;SDS011;54139;42.616;23.748;2023-04-03T13:09:20;2.17;;;2.00;;
67227;SDS011;54139;42.616;23.748;2023-04-03T13:11:49;2.60;;;1.83;;
67227;SDS011;54139;42.616;23.748;2023-04-03T13:14:23;1.92;;;1.80;;
67227;SDS011;54139;42.616;23.748;2023-04-03T13:16:53;1.80;;;1.70;;
67227;SDS011;54139;42.616;23.748;2023-04-03T13:19:19;3.33;;;1.80;;
67227;SDS011;54139;42.616;23.748;2023-04-03T13:21:45;3.08;;;1.80;;
67227;SDS011;54139;42.616;23.748;2023-04-03T13:24:11;2.17;;;2.08;;
67227;SDS011;54139;42.616;23.748;2023-04-03T13:26:37;1.98;;;1.88;;
67227;SDS011;54139;42.616;23.748;2023-04-03T13:29:04;2.20;;;2.00;;
67227;SDS011;54139;42.616;23.748;2023-04-03T13:31:32;2.60;;;2.40;;
67227;SDS011;54139;42.616;23.748;2023-04-03T13:34:10;2.78;;;2.40;;
67227;SDS011;54139;42.616;23.748;2023-04-03T13:37:18;3.05;;;2.75;;
67227;SDS011;54139;42.616;23.748;2023-04-03T13:39:28;3.25;;;2.95;;
67227;SDS011;54139;42.616;23.748;2023-04-03T13:41:55;3.00;;;2.25;;
67227;SDS011;54139;42.616;23.748;2023-04-03T13:46:51;3.17;;;2.95;;
67227;SDS011;54139;42.616;23.748;2023-04-03T13:51:42;3.00;;;2.80;;
67227;SDS011;54139;42.616;23.748;2023-04-03T13:54:21;3.10;;;2.90;;
67227;SDS011;54139;42.616;23.748;2023-04-03T14:04:11;4.13;;;3.83;;
67227;SDS011;54139;42.616;23.748;2023-04-03T14:06:37;4.60;;;4.30;;
67227;SDS011;54139;42.616;23.748;2023-04-03T14:09:03;4.70;;;3.70;;
67227;SDS011;54139;42.616;23.748;2023-04-03T14:11:29;3.97;;;3.58;;
67227;SDS011;54139;42.616;23.748;2023-04-03T14:13:56;4.00;;;3.72;;
67227;SDS011;54139;42.616;23.748;2023-04-03T14:16:23;4.57;;;4.18;;
67227;SDS011;54139;42.616;23.748;2023-04-03T14:18:52;5.40;;;4.78;;
67227;SDS011;54139;42.616;23.748;2023-04-03T14:21:18;4.70;;;4.30;;
67227;SDS011;54139;42.616;23.748;2023-04-03T14:23:45;5.32;;;4.93;;
67227;SDS011;54139;42.616;23.748;2023-04-03T14:26:16;5.93;;;5.53;;
67227;SDS011;54139;42.616;23.748;2023-04-03T14:28:43;5.55;;;5.15;;
67227;SDS011;54139;42.616;23.748;2023-04-03T14:31:09;6.43;;;5.90;;
67227;SDS011;54139;42.616;23.748;2023-04-03T14:46:32;10.90;;;9.90;;
67227;SDS011;54139;42.616;23.748;2023-04-03T14:48:58;9.35;;;8.52;;
67227;SDS011;54139;42.616;23.748;2023-04-03T14:56:34;5.70;;;5.28;;
67227;SDS011;54139;42.616;23.748;2023-04-03T14:59:00;4.80;;;4.50;;
67227;SDS011;54139;42.616;23.748;2023-04-03T15:01:26;4.18;;;3.88;;
67227;SDS011;54139;42.616;23.748;2023-04-03T15:03:52;5.38;;;4.60;;
67227;SDS011;54139;42.616;23.748;2023-04-03T15:06:17;4.55;;;4.20;;
67227;SDS011;54139;42.616;23.748;2023-04-03T15:13:53;6.47;;;5.88;;
67227;SDS011;54139;42.616;23.748;2023-04-03T15:16:19;5.45;;;4.97;;
67227;SDS011;54139;42.616;23.748;2023-04-03T15:18:45;5.32;;;4.90;;
67227;SDS011;54139;42.616;23.748;2023-04-03T15:21:10;4.32;;;3.92;;
67227;SDS011;54139;42.616;23.748;2023-04-03T15:23:36;5.20;;;4.70;;
67227;SDS011;54139;42.616;23.748;2023-04-03T15:26:02;4.25;;;3.70;;
67227;SDS011;54139;42.616;23.748;2023-04-03T15:30:56;6.50;;;4.53;;
67227;SDS011;54139;42.616;23.748;2023-04-03T15:33:21;5.78;;;5.22;;
67227;SDS011;54139;42.616;23.748;2023-04-03T15:40:57;5.82;;;5.32;;
67227;SDS011;54139;42.616;23.748;2023-04-03T15:51:08;5.30;;;4.90;;
67227;SDS011;54139;42.616;23.748;2023-04-03T15:53:33;5.50;;;5.00;;
67227;SDS011;54139;42.616;23.748;2023-04-03T15:55:59;4.68;;;4.35;;
67227;SDS011;54139;42.616;23.748;2023-04-03T16:44:55;5.82;;;5.32;;
67227;SDS011;54139;42.616;23.748;2023-04-03T17:06:00;8.05;;;7.32;;
67227;SDS011;54139;42.616;23.748;2023-04-03T17:08:26;7.35;;;6.65;;
67227;SDS011;54139;42.616;23.748;2023-04-03T17:10:51;2.85;;;2.65;;
67227;SDS011;54139;42.616;23.748;2023-04-03T17:13:18;10.05;;;5.88;;
67227;SDS011;54139;42.616;23.748;2023-04-03T17:15:44;4.95;;;4.35;;
67227;SDS011;54139;42.616;23.748;2023-04-03T17:18:09;2.40;;;2.20;;
67227;SDS011;54139;42.616;23.748;2023-04-03T17:20:35;2.47;;;2.00;;
67227;SDS011;54139;42.616;23.748;2023-04-03T17:23:03;2.20;;;2.10;;
67227;SDS011;54139;42.616;23.748;2023-04-03T17:25:29;4.15;;;2.17;;
67227;SDS011;54139;42.616;23.748;2023-04-03T17:27:54;2.17;;;1.90;;
67227;SDS011;54139;42.616;23.748;2023-04-03T17:30:21;3.38;;;2.00;;
67227;SDS011;54139;42.616;23.748;2023-04-03T17:32:46;2.13;;;1.90;;
67227;SDS011;54139;42.616;23.748;2023-04-03T17:35:12;4.40;;;4.00;;
67227;SDS011;54139;42.616;23.748;2023-04-03T17:37:37;3.47;;;3.17;;
67227;SDS011;54139;42.616;23.748;2023-04-03T17:40:03;2.50;;;2.30;;
67227;SDS011;54139;42.616;23.748;2023-04-03T17:42:28;3.15;;;2.67;;
67227;SDS011;54139;42.616;23.748;2023-04-03T17:44:55;3.13;;;2.67;;
67227;SDS011;54139;42.616;23.748;2023-04-03T17:47:20;4.53;;;2.65;;
67227;SDS011;54139;42.616;23.748;2023-04-03T17:49:46;3.75;;;3.42;;
67227;SDS011;54139;42.616;23.748;2023-04-03T17:52:11;3.35;;;2.45;;
67227;SDS011;54139;42.616;23.748;2023-04-03T17:54:37;1.77;;;1.67;;
67227;SDS011;54139;42.616;23.748;2023-04-03T17:57:02;2.00;;;1.80;;
67227;SDS011;54139;42.616;23.748;2023-04-03T18:12:58;2.33;;;2.13;;
67227;SDS011;54139;42.616;23.748;2023-04-03T18:15:24;2.13;;;1.58;;
67227;SDS011;54139;42.616;23.748;2023-04-03T18:17:52;2.90;;;2.70;;
67227;SDS011;54139;42.616;23.748;2023-04-03T18:22:55;11.13;;;10.15;;
67227;SDS011;54139;42.616;23.748;2023-04-03T18:25:23;5.30;;;4.82;;
67227;SDS011;54139;42.616;23.748;2023-04-03T18:27:49;4.30;;;3.97;;
67227;SDS011;54139;42.616;23.748;2023-04-03T18:30:15;3.67;;;3.03;;